sensor_id;sensor_type;location;lat;lon;timestamp;P1;durP1;ratioP1;P2;durP2;ratioP2
25129;SDS011;13308;50.860;13.664;2022-08-19T04:30:15;47.35;;;26.15;;
25129;SDS011;13308;50.860;13.664;2022-08-19T04:32:40;49.10;;;27.08;;
25129;SDS011;13308;50.860;13.664;2022-08-19T04:35:08;44.38;;;25.98;;
25129;SDS011;13308;50.860;13.664;2022-08-19T04:37:34;52.17;;;28.17;;
25129;SDS011;13308;50.860;13.664;2022-08-19T04:39:59;46.28;;;25.75;;
25129;SDS011;13308;50.860;13.664;2022-08-19T04:42:43;43.28;;;25.88;;
25129;SDS011;13308;50.860;13.664;2022-08-19T04:45:11;46.08;;;26.52;;
25129;SDS011;13308;50.860;13.664;2022-08-19T04:47:40;46.08;;;25.75;;
25129;SDS011;13308;50.860;13.664;2022-08-19T04:50:07;47.47;;;26.98;;
25129;SDS011;13308;50.860;13.664;2022-08-19T04:52:35;41.05;;;25.45;;
25129;SDS011;13308;50.860;13.664;2022-08-19T04:55:01;46.58;;;25.95;;
25129;SDS011;13308;50.860;13.664;2022-08-19T04:57:26;44.03;;;25.15;;
25129;SDS011;13308;50.860;13.664;2022-08-19T04:59:55;40.05;;;24.33;;
25129;SDS011;13308;50.860;13.664;2022-08-19T05:02:21;39.28;;;23.63;;
25129;SDS011;13308;50.860;13.664;2022-08-19T05:04:57;43.25;;;24.73;;
25129;SDS011;13308;50.860;13.664;2022-08-19T05:07:24;38.38;;;24.02;;
25129;SDS011;13308;50.860;13.664;2022-08-19T05:09:49;41.40;;;23.52;;
25129;SDS011;13308;50.860;13.664;2022-08-19T05:12:15;39.83;;;23.35;;
25129;SDS011;13308;50.860;13.664;2022-08-19T05:14:40;38.67;;;23.10;;
25129;SDS011;13308;50.860;13.664;2022-08-19T05:17:05;40.67;;;24.45;;
25129;SDS011;13308;50.860;13.664;2022-08-19T05:19:31;41.05;;;24.63;;
25129;SDS011;13308;50.860;13.664;2022-08-19T05:22:15;39.15;;;23.13;;
25129;SDS011;13308;50.860;13.664;2022-08-19T05:25:07;39.45;;;23.50;;
25129;SDS011;13308;50.860;13.664;2022-08-19T05:27:34;38.40;;;23.02;;
25129;SDS011;13308;50.860;13.664;2022-08-19T05:30:00;33.50;;;21.17;;
25129;SDS011;13308;50.860;13.664;2022-08-19T05:32:26;35.30;;;22.55;;
25129;SDS011;13308;50.860;13.664;2022-08-19T05:34:52;36.90;;;22.98;;
25129;SDS011;13308;50.860;13.664;2022-08-19T05:37:17;37.70;;;22.25;;
25129;SDS011;13308;50.860;13.664;2022-08-19T05:39:42;37.22;;;22.63;;
25129;SDS011;13308;50.860;13.664;2022-08-19T05:42:09;32.45;;;21.45;;
25129;SDS011;13308;50.860;13.664;2022-08-19T05:44:39;36.88;;;22.48;;
25129;SDS011;13308;50.860;13.664;2022-08-19T05:47:10;32.53;;;20.48;;
25129;SDS011;13308;50.860;13.664;2022-08-19T05:49:36;38.50;;;23.52;;
25129;SDS011;13308;50.860;13.664;2022-08-19T05:52:04;33.33;;;20.65;;
25129;SDS011;13308;50.860;13.664;2022-08-19T05:54:31;37.20;;;21.75;;
25129;SDS011;13308;50.860;13.664;2022-08-19T05:56:57;32.33;;;21.23;;
25129;SDS011;13308;50.860;13.664;2022-08-19T05:59:22;31.15;;;20.80;;
25129;SDS011;13308;50.860;13.664;2022-08-19T06:01:48;36.15;;;22.60;;
25129;SDS011;13308;50.860;13.664;2022-08-19T06:04:16;32.58;;;20.85;;
25129;SDS011;13308;50.860;13.664;2022-08-19T06:06:44;30.98;;;20.50;;
25129;SDS011;13308;50.860;13.664;2022-08-19T06:09:15;34.42;;;20.85;;
25129;SDS011;13308;50.860;13.664;2022-08-19T06:11:42;34.85;;;22.48;;
25129;SDS011;13308;50.860;13.664;2022-08-19T06:14:13;32.63;;;20.63;;
25129;SDS011;13308;50.860;13.664;2022-08-19T06:16:43;31.98;;;20.92;;
25129;SDS011;13308;50.860;13.664;2022-08-19T06:19:11;30.10;;;21.10;;
25129;SDS011;13308;50.860;13.664;2022-08-19T06:21:39;25.92;;;18.13;;
25129;SDS011;13308;50.860;13.664;2022-08-19T06:24:06;24.10;;;17.83;;
25129;SDS011;13308;50.860;13.664;2022-08-19T06:26:35;29.88;;;17.52;;
25129;SDS011;13308;50.860;13.664;2022-08-19T06:29:03;25.58;;;17.63;;
25129;SDS011;13308;50.860;13.664;2022-08-19T06:31:31;24.92;;;17.23;;
25129;SDS011;13308;50.860;13.664;2022-08-19T06:33:58;25.55;;;17.20;;
25129;SDS011;13308;50.860;13.664;2022-08-19T06:36:33;22.98;;;16.63;;
25129;SDS011;13308;50.860;13.664;2022-08-19T06:39:01;25.20;;;17.98;;
25129;SDS011;13308;50.860;13.664;2022-08-19T06:41:28;23.15;;;16.23;;
25129;SDS011;13308;50.860;13.664;2022-08-19T06:43:55;23.67;;;16.40;;
25129;SDS011;13308;50.860;13.664;2022-08-19T06:46:21;24.65;;;16.58;;
25129;SDS011;13308;50.860;13.664;2022-08-19T06:48:47;18.20;;;13.40;;
25129;SDS011;13308;50.860;13.664;2022-08-19T06:51:14;18.63;;;14.55;;
25129;SDS011;13308;50.860;13.664;2022-08-19T06:53:43;20.83;;;14.40;;
25129;SDS011;13308;50.860;13.664;2022-08-19T06:56:11;22.77;;;14.75;;
25129;SDS011;13308;50.860;13.664;2022-08-19T06:58:37;21.15;;;15.10;;
25129;SDS011;13308;50.860;13.664;2022-08-19T07:01:03;20.95;;;13.95;;
25129;SDS011;13308;50.860;13.664;2022-08-19T07:03:30;16.42;;;13.35;;
25129;SDS011;13308;50.860;13.664;2022-08-19T07:05:57;17.77;;;13.38;;
25129;SDS011;13308;50.860;13.664;2022-08-19T07:08:34;16.70;;;13.60;;
25129;SDS011;13308;50.860;13.664;2022-08-19T07:11:08;18.85;;;13.25;;
25129;SDS011;13308;50.860;13.664;2022-08-19T07:13:34;17.50;;;13.05;;
25129;SDS011;13308;50.860;13.664;2022-08-19T07:16:08;19.63;;;13.65;;
25129;SDS011;13308;50.860;13.664;2022-08-19T07:18:35;20.52;;;13.73;;
25129;SDS011;13308;50.860;13.664;2022-08-19T07:23:31;22.55;;;14.35;;
25129;SDS011;13308;50.860;13.664;2022-08-19T07:25:56;18.10;;;13.65;;
25129;SDS011;13308;50.860;13.664;2022-08-19T07:28:22;17.10;;;13.50;;
25129;SDS011;13308;50.860;13.664;2022-08-19T07:30:47;22.98;;;15.75;;
25129;SDS011;13308;50.860;13.664;2022-08-19T07:33:15;22.75;;;15.05;;
25129;SDS011;13308;50.860;13.664;2022-08-19T07:35:41;21.73;;;15.98;;
25129;SDS011;13308;50.860;13.664;2022-08-19T07:38:07;25.23;;;15.98;;
25129;SDS011;13308;50.860;13.664;2022-08-19T07:40:32;24.95;;;15.52;;
25129;SDS011;13308;50.860;13.664;2022-08-19T07:42:57;21.52;;;15.27;;
25129;SDS011;13308;50.860;13.664;2022-08-19T07:45:23;23.42;;;15.43;;
25129;SDS011;13308;50.860;13.664;2022-08-19T07:47:48;20.98;;;15.15;;
25129;SDS011;13308;50.860;13.664;2022-08-19T07:50:14;22.02;;;15.48;;
25129;SDS011;13308;50.860;13.664;2022-08-19T07:52:40;21.40;;;15.52;;
25129;SDS011;13308;50.860;13.664;2022-08-19T07:55:06;21.52;;;15.32;;
25129;SDS011;13308;50.860;13.664;2022-08-19T07:57:32;25.65;;;16.30;;
25129;SDS011;13308;50.860;13.664;2022-08-19T07:59:58;22.77;;;14.45;;
25129;SDS011;13308;50.860;13.664;2022-08-19T08:02:24;19.98;;;15.20;;
25129;SDS011;13308;50.860;13.664;2022-08-19T08:04:49;20.50;;;15.05;;
25129;SDS011;13308;50.860;13.664;2022-08-19T08:07:33;21.33;;;14.15;;
25129;SDS011;13308;50.860;13.664;2022-08-19T08:10:17;24.20;;;14.73;;
25129;SDS011;13308;50.860;13.664;2022-08-19T08:12:42;22.20;;;13.75;;
25129;SDS011;13308;50.860;13.664;2022-08-19T08:15:10;22.38;;;14.63;;
25129;SDS011;13308;50.860;13.664;2022-08-19T08:17:42;18.33;;;12.57;;
25129;SDS011;13308;50.860;13.664;2022-08-19T08:20:07;22.90;;;14.20;;
25129;SDS011;13308;50.860;13.664;2022-08-19T08:22:34;23.23;;;15.32;;
25129;SDS011;13308;50.860;13.664;2022-08-19T08:25:23;18.83;;;14.02;;
25129;SDS011;13308;50.860;13.664;2022-08-19T08:27:49;22.88;;;14.57;;
25129;SDS011;13308;50.860;13.664;2022-08-19T08:30:19;22.48;;;15.98;;
25129;SDS011;13308;50.860;13.664;2022-08-19T08:32:46;21.60;;;14.18;;
25129;SDS011;13308;50.860;13.664;2022-08-19T08:35:13;21.20;;;14.68;;
25129;SDS011;13308;50.860;13.664;2022-08-19T08:37:43;24.95;;;15.68;;
25129;SDS011;13308;50.860;13.664;2022-08-19T08:40:29;20.73;;;14.18;;
25129;SDS011;13308;50.860;13.664;2022-08-19T08:43:37;22.00;;;14.95;;
25129;SDS011;13308;50.860;13.664;2022-08-19T08:49:20;19.77;;;14.90;;
25129;SDS011;13308;50.860;13.664;2022-08-19T08:52:11;17.02;;;12.45;;
25129;SDS011;13308;50.860;13.664;2022-08-19T08:54:43;14.18;;;11.40;;
25129;SDS011;13308;50.860;13.664;2022-08-19T08:57:14;10.23;;;8.65;;
25129;SDS011;13308;50.860;13.664;2022-08-19T08:59:45;11.93;;;8.85;;
25129;SDS011;13308;50.860;13.664;2022-08-19T09:02:16;13.45;;;10.23;;
25129;SDS011;13308;50.860;13.664;2022-08-19T09:04:42;14.30;;;10.18;;
25129;SDS011;13308;50.860;13.664;2022-08-19T09:10:08;16.13;;;11.43;;
25129;SDS011;13308;50.860;13.664;2022-08-19T09:15:32;20.92;;;13.02;;
25129;SDS011;13308;50.860;13.664;2022-08-19T09:18:02;19.67;;;13.50;;
25129;SDS011;13308;50.860;13.664;2022-08-19T09:20:28;16.83;;;13.02;;
25129;SDS011;13308;50.860;13.664;2022-08-19T09:22:56;15.38;;;12.77;;
25129;SDS011;13308;50.860;13.664;2022-08-19T09:25:22;19.77;;;14.80;;
25129;SDS011;13308;50.860;13.664;2022-08-19T09:27:48;22.92;;;15.00;;
25129;SDS011;13308;50.860;13.664;2022-08-19T09:30:18;21.50;;;14.85;;
25129;SDS011;13308;50.860;13.664;2022-08-19T09:32:47;18.42;;;13.20;;
25129;SDS011;13308;50.860;13.664;2022-08-19T09:35:13;19.83;;;12.98;;
25129;SDS011;13308;50.860;13.664;2022-08-19T09:37:39;18.10;;;12.80;;
25129;SDS011;13308;50.860;13.664;2022-08-19T09:40:05;18.63;;;12.50;;
25129;SDS011;13308;50.860;13.664;2022-08-19T09:42:32;18.55;;;12.07;;
25129;SDS011;13308;50.860;13.664;2022-08-19T09:44:58;17.23;;;12.57;;
25129;SDS011;13308;50.860;13.664;2022-08-19T09:47:24;15.85;;;11.13;;
25129;SDS011;13308;50.860;13.664;2022-08-19T09:49:49;15.18;;;11.80;;
25129;SDS011;13308;50.860;13.664;2022-08-19T09:52:15;16.05;;;11.88;;
25129;SDS011;13308;50.860;13.664;2022-08-19T09:54:41;16.20;;;10.30;;
25129;SDS011;13308;50.860;13.664;2022-08-19T09:57:06;14.10;;;10.82;;
25129;SDS011;13308;50.860;13.664;2022-08-19T09:59:32;14.63;;;11.07;;
25129;SDS011;13308;50.860;13.664;2022-08-19T10:01:58;14.30;;;10.48;;
25129;SDS011;13308;50.860;13.664;2022-08-19T10:04:23;11.75;;;9.77;;
25129;SDS011;13308;50.860;13.664;2022-08-19T10:07:08;11.45;;;9.82;;
25129;SDS011;13308;50.860;13.664;2022-08-19T10:09:34;12.07;;;10.25;;
25129;SDS011;13308;50.860;13.664;2022-08-19T10:11:59;13.45;;;10.88;;
25129;SDS011;13308;50.860;13.664;2022-08-19T10:14:26;12.23;;;9.88;;
25129;SDS011;13308;50.860;13.664;2022-08-19T10:16:52;13.48;;;10.70;;
25129;SDS011;13308;50.860;13.664;2022-08-19T10:19:17;12.60;;;10.43;;
25129;SDS011;13308;50.860;13.664;2022-08-19T10:21:45;16.38;;;11.30;;
25129;SDS011;13308;50.860;13.664;2022-08-19T10:24:10;13.60;;;10.75;;
25129;SDS011;13308;50.860;13.664;2022-08-19T10:26:36;15.55;;;11.75;;
25129;SDS011;13308;50.860;13.664;2022-08-19T10:29:04;15.38;;;12.23;;
25129;SDS011;13308;50.860;13.664;2022-08-19T10:31:31;17.50;;;12.77;;
25129;SDS011;13308;50.860;13.664;2022-08-19T10:33:58;18.58;;;13.95;;
25129;SDS011;13308;50.860;13.664;2022-08-19T10:36:25;18.83;;;13.98;;
25129;SDS011;13308;50.860;13.664;2022-08-19T10:38:52;16.45;;;12.68;;
25129;SDS011;13308;50.860;13.664;2022-08-19T10:41:22;18.52;;;12.90;;
25129;SDS011;13308;50.860;13.664;2022-08-19T10:43:56;16.00;;;13.07;;
25129;SDS011;13308;50.860;13.664;2022-08-19T10:46:24;16.73;;;12.00;;
25129;SDS011;13308;50.860;13.664;2022-08-19T10:48:51;15.65;;;11.82;;
25129;SDS011;13308;50.860;13.664;2022-08-19T10:51:17;13.13;;;10.77;;
25129;SDS011;13308;50.860;13.664;2022-08-19T10:54:02;14.73;;;10.90;;
25129;SDS011;13308;50.860;13.664;2022-08-19T10:56:28;13.18;;;10.77;;
25129;SDS011;13308;50.860;13.664;2022-08-19T10:59:12;11.90;;;10.15;;
25129;SDS011;13308;50.860;13.664;2022-08-19T11:01:39;10.32;;;9.23;;
25129;SDS011;13308;50.860;13.664;2022-08-19T11:04:06;10.27;;;9.20;;
25129;SDS011;13308;50.860;13.664;2022-08-19T11:06:35;10.52;;;9.43;;
25129;SDS011;13308;50.860;13.664;2022-08-19T11:09:01;10.40;;;9.40;;
25129;SDS011;13308;50.860;13.664;2022-08-19T11:11:27;10.23;;;8.52;;
25129;SDS011;13308;50.860;13.664;2022-08-19T11:13:53;10.70;;;8.77;;
25129;SDS011;13308;50.860;13.664;2022-08-19T11:16:20;10.18;;;7.50;;
25129;SDS011;13308;50.860;13.664;2022-08-19T11:18:50;7.50;;;6.63;;
25129;SDS011;13308;50.860;13.664;2022-08-19T11:21:19;7.38;;;6.70;;
25129;SDS011;13308;50.860;13.664;2022-08-19T11:23:45;8.80;;;7.40;;
25129;SDS011;13308;50.860;13.664;2022-08-19T11:26:12;8.57;;;7.50;;
25129;SDS011;13308;50.860;13.664;2022-08-19T11:28:39;8.65;;;7.20;;
25129;SDS011;13308;50.860;13.664;2022-08-19T11:31:08;9.48;;;8.55;;
25129;SDS011;13308;50.860;13.664;2022-08-19T11:33:41;7.88;;;7.13;;
25129;SDS011;13308;50.860;13.664;2022-08-19T11:36:07;7.78;;;7.10;;
25129;SDS011;13308;50.860;13.664;2022-08-19T11:38:33;9.57;;;8.63;;
25129;SDS011;13308;50.860;13.664;2022-08-19T11:41:01;9.00;;;8.10;;
25129;SDS011;13308;50.860;13.664;2022-08-19T11:43:29;11.98;;;8.55;;
25129;SDS011;13308;50.860;13.664;2022-08-19T11:45:55;7.90;;;6.80;;
25129;SDS011;13308;50.860;13.664;2022-08-19T11:48:21;7.20;;;6.55;;
25129;SDS011;13308;50.860;13.664;2022-08-19T11:50:50;7.32;;;6.72;;
25129;SDS011;13308;50.860;13.664;2022-08-19T11:53:17;7.05;;;6.45;;
25129;SDS011;13308;50.860;13.664;2022-08-19T11:55:45;6.65;;;6.05;;
25129;SDS011;13308;50.860;13.664;2022-08-19T11:58:14;6.05;;;5.50;;
25129;SDS011;13308;50.860;13.664;2022-08-19T12:00:42;6.97;;;6.38;;
25129;SDS011;13308;50.860;13.664;2022-08-19T12:06:24;6.47;;;5.97;;
25129;SDS011;13308;50.860;13.664;2022-08-19T12:08:53;7.50;;;6.85;;
25129;SDS011;13308;50.860;13.664;2022-08-19T12:11:20;6.60;;;6.10;;
25129;SDS011;13308;50.860;13.664;2022-08-19T12:13:46;6.88;;;6.28;;
25129;SDS011;13308;50.860;13.664;2022-08-19T12:16:16;6.38;;;5.88;;
25129;SDS011;13308;50.860;13.664;2022-08-19T12:18:44;6.20;;;5.70;;
25129;SDS011;13308;50.860;13.664;2022-08-19T12:21:11;5.50;;;5.10;;
25129;SDS011;13308;50.860;13.664;2022-08-19T12:23:39;5.65;;;5.25;;
25129;SDS011;13308;50.860;13.664;2022-08-19T12:26:08;6.32;;;5.82;;
25129;SDS011;13308;50.860;13.664;2022-08-19T12:28:35;6.43;;;5.93;;
25129;SDS011;13308;50.860;13.664;2022-08-19T12:31:01;6.60;;;5.95;;
25129;SDS011;13308;50.860;13.664;2022-08-19T12:33:26;6.70;;;6.10;;
25129;SDS011;13308;50.860;13.664;2022-08-19T12:35:53;6.65;;;6.07;;
25129;SDS011;13308;50.860;13.664;2022-08-19T12:38:19;5.65;;;5.18;;
25129;SDS011;13308;50.860;13.664;2022-08-19T12:40:46;6.93;;;6.32;;
25129;SDS011;13308;50.860;13.664;2022-08-19T12:43:12;8.10;;;7.30;;
25129;SDS011;13308;50.860;13.664;2022-08-19T12:45:40;7.57;;;6.93;;
25129;SDS011;13308;50.860;13.664;2022-08-19T12:48:06;10.38;;;8.07;;
25129;SDS011;13308;50.860;13.664;2022-08-19T12:50:31;8.50;;;7.80;;
25129;SDS011;13308;50.860;13.664;2022-08-19T12:52:57;7.95;;;7.25;;
25129;SDS011;13308;50.860;13.664;2022-08-19T12:55:23;8.52;;;7.63;;
25129;SDS011;13308;50.860;13.664;2022-08-19T12:57:49;9.45;;;8.30;;
25129;SDS011;13308;50.860;13.664;2022-08-19T13:00:16;8.40;;;7.60;;
25129;SDS011;13308;50.860;13.664;2022-08-19T13:02:46;8.80;;;7.90;;
25129;SDS011;13308;50.860;13.664;2022-08-19T13:05:18;8.98;;;8.13;;
25129;SDS011;13308;50.860;13.664;2022-08-19T13:07:51;9.63;;;8.60;;
25129;SDS011;13308;50.860;13.664;2022-08-19T13:10:20;10.32;;;9.32;;
25129;SDS011;13308;50.860;13.664;2022-08-19T13:12:47;11.10;;;9.90;;
25129;SDS011;13308;50.860;13.664;2022-08-19T13:15:15;11.85;;;10.63;;
25129;SDS011;13308;50.860;13.664;2022-08-19T13:17:45;13.68;;;12.23;;
25129;SDS011;13308;50.860;13.664;2022-08-19T13:20:13;14.05;;;12.10;;
25129;SDS011;13308;50.860;13.664;2022-08-19T13:22:38;15.00;;;13.38;;
25129;SDS011;13308;50.860;13.664;2022-08-19T13:25:04;19.80;;;13.45;;
25129;SDS011;13308;50.860;13.664;2022-08-19T13:27:30;18.38;;;13.63;;
25129;SDS011;13308;50.860;13.664;2022-08-19T13:29:56;16.83;;;13.50;;
25129;SDS011;13308;50.860;13.664;2022-08-19T13:32:40;18.98;;;15.02;;
25129;SDS011;13308;50.860;13.664;2022-08-19T13:35:23;17.70;;;14.43;;
25129;SDS011;13308;50.860;13.664;2022-08-19T13:37:49;24.85;;;16.05;;
25129;SDS011;13308;50.860;13.664;2022-08-19T13:40:15;19.10;;;15.02;;
25129;SDS011;13308;50.860;13.664;2022-08-19T13:42:47;20.50;;;15.38;;
25129;SDS011;13308;50.860;13.664;2022-08-19T13:45:14;21.73;;;15.05;;
25129;SDS011;13308;50.860;13.664;2022-08-19T13:47:44;21.80;;;14.80;;
25129;SDS011;13308;50.860;13.664;2022-08-19T13:50:12;21.67;;;14.85;;
25129;SDS011;13308;50.860;13.664;2022-08-19T13:52:39;20.35;;;16.38;;
25129;SDS011;13308;50.860;13.664;2022-08-19T13:55:05;29.20;;;18.95;;
25129;SDS011;13308;50.860;13.664;2022-08-19T13:57:31;32.17;;;18.85;;
25129;SDS011;13308;50.860;13.664;2022-08-19T13:59:59;33.55;;;20.15;;
25129;SDS011;13308;50.860;13.664;2022-08-19T14:02:26;30.08;;;19.80;;
25129;SDS011;13308;50.860;13.664;2022-08-19T14:04:51;34.13;;;20.27;;
25129;SDS011;13308;50.860;13.664;2022-08-19T14:07:17;34.28;;;20.17;;
25129;SDS011;13308;50.860;13.664;2022-08-19T14:09:42;36.10;;;22.08;;
25129;SDS011;13308;50.860;13.664;2022-08-19T14:12:07;40.35;;;23.20;;
25129;SDS011;13308;50.860;13.664;2022-08-19T14:14:36;39.03;;;22.65;;
25129;SDS011;13308;50.860;13.664;2022-08-19T14:17:05;46.92;;;24.67;;
25129;SDS011;13308;50.860;13.664;2022-08-19T14:19:31;42.80;;;23.50;;
25129;SDS011;13308;50.860;13.664;2022-08-19T14:21:56;41.63;;;23.20;;
25129;SDS011;13308;50.860;13.664;2022-08-19T14:24:22;46.58;;;24.23;;
25129;SDS011;13308;50.860;13.664;2022-08-19T14:26:47;46.67;;;24.75;;
25129;SDS011;13308;50.860;13.664;2022-08-19T14:29:13;48.95;;;25.50;;
25129;SDS011;13308;50.860;13.664;2022-08-19T14:31:39;45.08;;;24.02;;
25129;SDS011;13308;50.860;13.664;2022-08-19T14:34:05;46.03;;;24.90;;
25129;SDS011;13308;50.860;13.664;2022-08-19T14:36:31;42.42;;;24.33;;
25129;SDS011;13308;50.860;13.664;2022-08-19T14:38:59;42.78;;;23.85;;
25129;SDS011;13308;50.860;13.664;2022-08-19T14:41:25;40.47;;;23.70;;
25129;SDS011;13308;50.860;13.664;2022-08-19T14:43:52;41.60;;;22.05;;
25129;SDS011;13308;50.860;13.664;2022-08-19T14:46:19;42.47;;;22.52;;
25129;SDS011;13308;50.860;13.664;2022-08-19T14:48:46;39.08;;;23.02;;
25129;SDS011;13308;50.860;13.664;2022-08-19T14:51:12;45.20;;;22.77;;
25129;SDS011;13308;50.860;13.664;2022-08-19T14:53:39;40.90;;;22.02;;
25129;SDS011;13308;50.860;13.664;2022-08-19T14:56:12;38.60;;;21.55;;
25129;SDS011;13308;50.860;13.664;2022-08-19T14:58:39;38.30;;;21.67;;
25129;SDS011;13308;50.860;13.664;2022-08-19T15:01:06;40.08;;;21.65;;
25129;SDS011;13308;50.860;13.664;2022-08-19T15:03:32;40.80;;;22.02;;
25129;SDS011;13308;50.860;13.664;2022-08-19T15:05:57;46.35;;;23.60;;
25129;SDS011;13308;50.860;13.664;2022-08-19T15:08:24;46.42;;;23.42;;
25129;SDS011;13308;50.860;13.664;2022-08-19T15:10:50;44.15;;;23.50;;
25129;SDS011;13308;50.860;13.664;2022-08-19T15:13:16;45.95;;;22.70;;
25129;SDS011;13308;50.860;13.664;2022-08-19T15:15:42;41.55;;;22.92;;
25129;SDS011;13308;50.860;13.664;2022-08-19T15:18:07;40.72;;;22.45;;
25129;SDS011;13308;50.860;13.664;2022-08-19T15:20:33;43.13;;;23.63;;
25129;SDS011;13308;50.860;13.664;2022-08-19T15:22:58;41.13;;;21.95;;
25129;SDS011;13308;50.860;13.664;2022-08-19T15:25:25;35.58;;;21.08;;
25129;SDS011;13308;50.860;13.664;2022-08-19T15:27:51;41.20;;;22.48;;
25129;SDS011;13308;50.860;13.664;2022-08-19T15:30:20;42.25;;;22.55;;
25129;SDS011;13308;50.860;13.664;2022-08-19T15:32:48;44.22;;;23.05;;
25129;SDS011;13308;50.860;13.664;2022-08-19T15:35:14;38.80;;;21.48;;
25129;SDS011;13308;50.860;13.664;2022-08-19T15:37:39;33.30;;;20.27;;
25129;SDS011;13308;50.860;13.664;2022-08-19T15:40:05;45.72;;;23.00;;
25129;SDS011;13308;50.860;13.664;2022-08-19T15:42:33;42.08;;;22.25;;
25129;SDS011;13308;50.860;13.664;2022-08-19T15:45:00;36.55;;;20.95;;
25129;SDS011;13308;50.860;13.664;2022-08-19T15:47:27;36.22;;;22.00;;
25129;SDS011;13308;50.860;13.664;2022-08-19T15:49:54;36.95;;;21.33;;
25129;SDS011;13308;50.860;13.664;2022-08-19T15:52:20;37.88;;;21.58;;
25129;SDS011;13308;50.860;13.664;2022-08-19T15:54:45;33.42;;;21.70;;
25129;SDS011;13308;50.860;13.664;2022-08-19T15:57:10;34.00;;;22.20;;
25129;SDS011;13308;50.860;13.664;2022-08-19T15:59:51;33.53;;;21.27;;
25129;SDS011;13308;50.860;13.664;2022-08-19T16:02:35;41.08;;;23.02;;
25129;SDS011;13308;50.860;13.664;2022-08-19T16:05:21;41.58;;;24.70;;
25129;SDS011;13308;50.860;13.664;2022-08-19T16:08:08;44.58;;;25.17;;
25129;SDS011;13308;50.860;13.664;2022-08-19T16:10:34;47.00;;;26.05;;
25129;SDS011;13308;50.860;13.664;2022-08-19T16:13:00;48.47;;;26.10;;
25129;SDS011;13308;50.860;13.664;2022-08-19T16:15:27;42.85;;;24.33;;
25129;SDS011;13308;50.860;13.664;2022-08-19T16:17:55;44.97;;;25.55;;
25129;SDS011;13308;50.860;13.664;2022-08-19T16:20:21;39.47;;;23.25;;
25129;SDS011;13308;50.860;13.664;2022-08-19T16:22:46;43.67;;;25.42;;
25129;SDS011;13308;50.860;13.664;2022-08-19T16:25:13;42.35;;;24.30;;
25129;SDS011;13308;50.860;13.664;2022-08-19T16:27:39;40.30;;;23.30;;
25129;SDS011;13308;50.860;13.664;2022-08-19T16:30:04;35.25;;;21.15;;
25129;SDS011;13308;50.860;13.664;2022-08-19T16:32:31;34.10;;;21.70;;
25129;SDS011;13308;50.860;13.664;2022-08-19T16:34:56;41.45;;;22.77;;
25129;SDS011;13308;50.860;13.664;2022-08-19T16:37:21;34.08;;;21.73;;
25129;SDS011;13308;50.860;13.664;2022-08-19T16:39:47;37.58;;;20.17;;
25129;SDS011;13308;50.860;13.664;2022-08-19T16:42:13;35.67;;;20.50;;
25129;SDS011;13308;50.860;13.664;2022-08-19T16:44:39;28.80;;;18.48;;
25129;SDS011;13308;50.860;13.664;2022-08-19T16:47:07;32.55;;;20.98;;
25129;SDS011;13308;50.860;13.664;2022-08-19T16:49:32;36.13;;;22.20;;
25129;SDS011;13308;50.860;13.664;2022-08-19T16:51:58;42.75;;;24.55;;
25129;SDS011;13308;50.860;13.664;2022-08-19T16:54:23;44.92;;;25.20;;
25129;SDS011;13308;50.860;13.664;2022-08-19T16:56:50;48.47;;;26.10;;
25129;SDS011;13308;50.860;13.664;2022-08-19T16:59:16;50.80;;;25.77;;
25129;SDS011;13308;50.860;13.664;2022-08-19T17:01:41;48.35;;;25.75;;
25129;SDS011;13308;50.860;13.664;2022-08-19T17:04:08;50.78;;;27.55;;
25129;SDS011;13308;50.860;13.664;2022-08-19T17:06:34;55.53;;;27.88;;
25129;SDS011;13308;50.860;13.664;2022-08-19T17:09:01;49.03;;;26.95;;
25129;SDS011;13308;50.860;13.664;2022-08-19T17:11:28;51.83;;;26.52;;
25129;SDS011;13308;50.860;13.664;2022-08-19T17:13:56;57.05;;;29.25;;
25129;SDS011;13308;50.860;13.664;2022-08-19T17:16:24;50.42;;;25.75;;
25129;SDS011;13308;50.860;13.664;2022-08-19T17:18:52;53.28;;;26.98;;
25129;SDS011;13308;50.860;13.664;2022-08-19T17:21:20;50.97;;;26.42;;
25129;SDS011;13308;50.860;13.664;2022-08-19T17:23:49;46.65;;;24.90;;
25129;SDS011;13308;50.860;13.664;2022-08-19T17:26:15;47.50;;;24.80;;
25129;SDS011;13308;50.860;13.664;2022-08-19T17:28:43;46.80;;;25.05;;
25129;SDS011;13308;50.860;13.664;2022-08-19T17:31:09;44.92;;;24.40;;
